Fandon, Illinois
Current Conditions -  °F | °C
As of 6:15 AM on Monday 20 Oct 2014 (Local Time) from KMQB Reporting Station
Clear Clear  
Wind Chill: 50°   Ceiling: Unl
Heat Index: 50°   Visibility: 10mi
Dew Point: 47°   Wind: 9mph
Humidity: 90%   Direction: 270°W
Pressure: 29.92"   Gusts: NA
Location:  40.3545°N, 90.7535°W
Report Text: KMQB 201115Z AUTO 27008KT 10SM CLR 10/09 A2992 RMK AO2 T01010085
Loading
Personal Weather Stations






























Interactive Weather Map
Tropical Storm Tracking
New forecast layout! Learn more

10-Day Weather Forecast

Advertisements
Track Severe Weather on mobile